ADDS TAF Board (Experimental) INFO Settings
IDs:

KMCI - Kansas City Intl, MO, US

Issued at 0531 UTC 06 Feb 2016
Updated at: 0723 UTC 06 Feb 2016
Time0653Z 06/08Z 06/09Z 06/10Z 06/11Z 06/12Z 06/13Z 06/14Z 06/15Z 06/16Z 06/17Z 06/18Z 06/19Z 06/20Z
Type OBS PRVL PRVL PRVL PRVL PRVL PRVL PRVL PRVL PRVL PRVL PRVL PRVL PRVL
VIS 10 >6 >6 >6 >6 >6 >6 >6 >6 >6 >6 >6 >6 >6
CIG -- -- -- -- -- -- -- -- -- -- -- -- -- --
Cover SCT SCT SCT SCT SCT SCT SCT SCT SCT SCT SCT SCT SCT SCT
FltCat VFR VFR VFR VFR VFR VFR VFR VFR VFR VFR VFR VFR VFR VFR
WX -- -- -- -- -- -- -- -- -- -- -- -- -- --
WDir VRB 280 280 280 280 280 280 250 250 250 250 250 250 250
WSpd 0 7 7 7 7 7 7 9 9 9 9 9 9 9
WGst -- -- -- -- -- -- -- -- -- -- -- -- -- --
R01/19
XWnd VRB 7 7 7 7 7 7 8 8 8 8 8 8 8
HWnd VRB -0 -0 -0 -0 -0 -0 -5 -5 -5 -5 -5 -5 -5
R09/27
XWnd VRB 0 0 0 0 0 0 -4 -4 -4 -4 -4 -4 -4
HWnd VRB -7 -7 -7 -7 -7 -7 -8 -8 -8 -8 -8 -8 -8

NOTE: TEMPO conditions in [brackets]. Keep in mind TEMPO conditions might be better (lower impact) than prevailing conditions.

Raw TAF
KMCI 060531Z 0606/0706 19005KT P6SM BKN100
  FM060800 28007KT P6SM SCT150
  FM061400 25009KT P6SM SCT035
  FM070000 21009KT P6SM SCT100


Raw METAR
KMCI 060653Z 00000KT 10SM SCT150 02/M04 A3024 RMK AO2 SLP248 T00171044
KMCI 060553Z 00000KT 10SM OVC110 01/M04 A3026 RMK AO2 SLP254 T00111044 10044 20006 400501061 58006
KMCI 060453Z 17004KT 10SM OVC100 01/M04 A3027 RMK AO2 SLP258 T00111039

METAR Board
Radar Display
Forecast Discussion

TAF Board Legend

Potential Impact
Threat None Slight Moderate High
Visibility (sm) ≥5.1 5.1>X≥3 3>X≥1 <1
Ceiling (100 ft) ≥30.1 30.1>X≥10 10>X≥5 <5
Wind Speed (kt) <10 10≤X<20 20≤X<30 ≥30
Wind Gust (kt) <15 15≤X<25 25≤X<35 ≥35
Weather No Wx Reported VCTS,-TS,-FZRA,SN TS,FZRA +TS,+FZRA,+SN